createdAt,value
2023-04-20T00:02:26.313Z,4.13
2023-04-20T00:04:54.613Z,4.72
2023-04-20T00:07:24.772Z,5.10
2023-04-20T00:09:54.043Z,5.45
2023-04-20T00:12:21.939Z,5.55
2023-04-20T00:14:49.991Z,11.57
2023-04-20T00:17:18.022Z,13.60
2023-04-20T00:19:46.340Z,12.60
2023-04-20T00:22:14.439Z,10.70
2023-04-20T00:24:45.022Z,7.53
2023-04-20T00:27:14.239Z,6.50
2023-04-20T00:29:42.013Z,7.03
2023-04-20T00:32:10.033Z,6.57
2023-04-20T00:34:37.961Z,7.05
2023-04-20T00:37:06.227Z,7.30
2023-04-20T00:39:34.317Z,6.47
2023-04-20T00:42:08.077Z,8.83
2023-04-20T00:44:37.375Z,9.27
2023-04-20T00:47:05.327Z,7.30
2023-04-20T00:49:34.630Z,6.97
2023-04-20T00:52:02.631Z,7.85
2023-04-20T00:54:33.602Z,7.57
2023-04-20T00:57:02.490Z,7.57
2023-04-20T00:59:30.435Z,6.20
2023-04-20T01:02:00.015Z,6.60
2023-04-20T01:04:28.309Z,6.32
2023-04-20T01:06:57.075Z,5.97
2023-04-20T01:09:27.641Z,6.25
2023-04-20T01:11:55.761Z,5.47
2023-04-20T01:14:23.703Z,5.68
2023-04-20T01:16:52.060Z,4.80
2023-04-20T01:19:21.611Z,4.93
2023-04-20T01:21:49.506Z,4.53
2023-04-20T01:24:18.712Z,6.45
2023-04-20T01:26:46.653Z,6.18
2023-04-20T01:29:14.688Z,4.35
2023-04-20T01:31:43.995Z,4.93
2023-04-20T01:34:12.356Z,6.72
2023-04-20T01:36:40.333Z,4.90
2023-04-20T01:39:09.178Z,4.88
2023-04-20T01:41:38.472Z,5.33
2023-04-20T01:44:06.754Z,5.97
2023-04-20T01:46:37.773Z,3.97
2023-04-20T01:49:05.995Z,4.57
2023-04-20T01:51:34.062Z,7.20
2023-04-20T01:54:02.500Z,5.13
2023-04-20T01:56:30.710Z,5.90
2023-04-20T01:59:02.738Z,4.65
2023-04-20T02:01:30.660Z,7.13
2023-04-20T02:03:59.298Z,5.00
2023-04-20T02:06:27.382Z,5.20
2023-04-20T02:08:55.484Z,6.20
2023-04-20T02:11:23.500Z,7.00
2023-04-20T02:13:51.619Z,5.72
2023-04-20T02:16:21.855Z,5.20
2023-04-20T02:18:49.837Z,5.75
2023-04-20T02:21:17.913Z,5.65
2023-04-20T02:23:45.988Z,6.57
2023-04-20T02:26:13.920Z,5.20
2023-04-20T02:28:41.920Z,7.45
2023-04-20T02:31:12.192Z,7.63
2023-04-20T02:33:41.735Z,6.80
2023-04-20T02:36:10.429Z,5.63
2023-04-20T02:38:40.789Z,6.80
2023-04-20T02:41:08.842Z,6.50
2023-04-20T02:43:36.950Z,7.60
2023-04-20T02:46:06.074Z,6.38
2023-04-20T02:48:34.033Z,6.33
2023-04-20T02:51:03.752Z,5.70
2023-04-20T02:53:40.733Z,5.30
2023-04-20T02:56:34.964Z,5.22
2023-04-20T02:59:06.823Z,5.22
2023-04-20T03:01:43.031Z,5.00
2023-04-20T03:04:16.423Z,6.18
2023-04-20T03:06:54.171Z,6.50
2023-04-20T03:09:28.257Z,6.35
2023-04-20T03:11:56.332Z,9.18
2023-04-20T03:14:59.465Z,6.85
2023-04-20T03:17:43.464Z,6.10
2023-04-20T03:20:13.478Z,5.07
2023-04-20T03:22:42.854Z,4.40
2023-04-20T03:25:11.900Z,5.80
2023-04-20T03:27:58.414Z,6.50
2023-04-20T03:30:27.033Z,6.93
2023-04-20T03:33:04.352Z,6.90
2023-04-20T03:35:32.302Z,5.40
2023-04-20T03:38:02.490Z,7.50
2023-04-20T03:40:30.403Z,6.90
2023-04-20T03:42:58.395Z,6.38
2023-04-20T03:45:26.443Z,5.90
2023-04-20T03:47:54.496Z,6.28
2023-04-20T03:50:23.347Z,5.82
2023-04-20T03:52:51.292Z,5.38
2023-04-20T03:55:21.094Z,5.55
2023-04-20T03:57:55.916Z,5.43
2023-04-20T04:00:25.730Z,6.00
2023-04-20T04:03:03.792Z,6.30
2023-04-20T04:05:34.711Z,7.35
2023-04-20T04:08:04.346Z,6.13
2023-04-20T04:10:35.012Z,6.82
2023-04-20T04:13:03.321Z,6.05
2023-04-20T04:15:32.617Z,5.05
2023-04-20T04:18:05.721Z,5.38
2023-04-20T04:20:35.458Z,5.03
2023-04-20T04:23:03.728Z,4.90
2023-04-20T04:25:40.711Z,5.43
2023-04-20T04:28:10.680Z,6.97
2023-04-20T04:30:44.507Z,6.17
2023-04-20T04:33:14.808Z,6.55
2023-04-20T04:35:45.853Z,6.95
2023-04-20T04:38:14.945Z,6.10
2023-04-20T04:40:47.744Z,5.93
2023-04-20T04:43:16.109Z,6.70
2023-04-20T04:45:51.934Z,6.55
2023-04-20T04:48:20.635Z,7.15
2023-04-20T04:50:48.542Z,6.63
2023-04-20T04:53:16.577Z,9.47
2023-04-20T04:55:46.934Z,7.65
2023-04-20T04:58:16.537Z,6.37
2023-04-20T05:00:44.529Z,5.53
2023-04-20T05:03:13.950Z,5.57
2023-04-20T05:05:41.984Z,5.93
2023-04-20T05:08:10.009Z,7.95
2023-04-20T05:10:37.897Z,7.37
2023-04-20T05:13:05.942Z,7.05
2023-04-20T05:15:35.357Z,6.03
2023-04-20T05:18:03.404Z,6.28
2023-04-20T05:20:31.459Z,8.60
2023-04-20T05:22:59.493Z,7.93
2023-04-20T05:25:27.597Z,6.20
2023-04-20T05:27:57.904Z,7.68
2023-04-20T05:30:27.106Z,7.15
2023-04-20T05:32:56.440Z,6.47
2023-04-20T05:35:24.407Z,6.53
2023-04-20T05:37:52.838Z,7.40
2023-04-20T05:40:20.720Z,8.35
2023-04-20T05:42:48.547Z,7.03
2023-04-20T05:45:16.615Z,8.35
2023-04-20T05:47:54.002Z,6.23
2023-04-20T05:50:24.302Z,6.78
2023-04-20T05:52:52.298Z,7.40
2023-04-20T05:55:22.642Z,6.47
2023-04-20T05:57:52.412Z,8.43
2023-04-20T06:00:23.124Z,6.57
2023-04-20T06:02:54.481Z,7.90
2023-04-20T06:05:23.982Z,7.63
2023-04-20T06:07:51.923Z,6.90
2023-04-20T06:10:19.857Z,8.47
2023-04-20T06:12:48.176Z,7.57
2023-04-20T06:15:16.510Z,7.68
2023-04-20T06:17:48.478Z,7.75
2023-04-20T06:20:17.457Z,9.10
2023-04-20T06:22:47.086Z,7.82
2023-04-20T06:25:16.117Z,9.35
2023-04-20T06:27:44.070Z,8.10
2023-04-20T06:30:13.445Z,7.90
2023-04-20T06:32:41.603Z,8.00
2023-04-20T06:35:09.986Z,7.60
2023-04-20T06:37:40.716Z,7.00
2023-04-20T06:40:10.471Z,6.20
2023-04-20T06:42:38.495Z,6.47
2023-04-20T06:45:07.589Z,6.50
2023-04-20T06:47:36.104Z,6.93
2023-04-20T06:50:09.647Z,6.27
2023-04-20T06:52:38.651Z,7.03
2023-04-20T06:55:07.134Z,7.65
2023-04-20T06:57:38.387Z,9.80
2023-04-20T07:00:08.943Z,7.28
2023-04-20T07:02:43.914Z,6.63
2023-04-20T07:05:12.387Z,7.70
2023-04-20T07:07:43.282Z,6.93
2023-04-20T07:10:14.079Z,8.33
2023-04-20T07:12:44.467Z,8.20
2023-04-20T07:15:12.738Z,7.93
2023-04-20T07:17:40.868Z,8.50
2023-04-20T07:20:10.061Z,8.68
2023-04-20T07:22:39.548Z,8.55
2023-04-20T07:25:09.312Z,9.37
2023-04-20T07:27:38.661Z,8.50
2023-04-20T07:30:10.642Z,8.93
2023-04-20T07:32:40.836Z,6.72
2023-04-20T07:35:10.075Z,7.67
2023-04-20T07:37:38.057Z,7.30
2023-04-20T07:40:07.344Z,7.63
2023-04-20T07:42:37.145Z,7.30
2023-04-20T07:45:05.863Z,8.00
2023-04-20T07:47:35.954Z,8.00
2023-04-20T07:50:04.208Z,7.80
2023-04-20T07:52:32.413Z,8.87
2023-04-20T07:55:00.713Z,7.25
2023-04-20T07:57:30.170Z,8.73
2023-04-20T07:59:58.445Z,8.50
2023-04-20T08:02:26.448Z,8.13
2023-04-20T08:04:56.047Z,8.35
2023-04-20T08:07:24.140Z,8.63
2023-04-20T08:09:52.062Z,7.35
2023-04-20T08:12:20.032Z,8.65
2023-04-20T08:14:47.886Z,7.60
2023-04-20T08:17:18.136Z,7.07
2023-04-20T08:19:46.353Z,8.80
2023-04-20T08:22:15.778Z,7.50
2023-04-20T08:24:43.823Z,9.48
2023-04-20T08:27:11.746Z,8.38
2023-04-20T08:29:40.250Z,7.78
2023-04-20T08:32:09.719Z,7.68
2023-04-20T08:34:38.018Z,9.00
2023-04-20T08:37:06.296Z,7.90
2023-04-20T08:39:36.543Z,8.38
2023-04-20T08:42:07.347Z,8.38
2023-04-20T08:44:35.325Z,9.05
2023-04-20T08:47:04.454Z,8.02
2023-04-20T08:49:33.031Z,7.40
2023-04-20T08:52:01.157Z,9.90
2023-04-20T08:54:29.162Z,9.07
2023-04-20T08:56:59.798Z,7.97
2023-04-20T08:59:30.835Z,7.78
2023-04-20T09:02:09.449Z,8.43
2023-04-20T09:04:37.706Z,8.20
2023-04-20T09:07:06.034Z,8.13
2023-04-20T09:09:34.133Z,8.10
2023-04-20T09:12:04.986Z,7.93
2023-04-20T09:14:43.978Z,7.40
2023-04-20T09:17:14.585Z,8.70
2023-04-20T09:19:45.608Z,7.13
2023-04-20T09:22:13.858Z,7.70
2023-04-20T09:24:42.698Z,7.20
2023-04-20T09:27:19.087Z,7.80
2023-04-20T09:29:58.493Z,6.90
2023-04-20T09:32:29.317Z,9.73
2023-04-20T09:34:57.736Z,8.83
2023-04-20T09:37:26.572Z,6.50
2023-04-20T09:40:01.187Z,6.80
2023-04-20T09:42:33.851Z,6.10
2023-04-20T09:45:03.729Z,6.67
2023-04-20T09:47:32.180Z,7.27
2023-04-20T09:50:14.127Z,8.23
2023-04-20T09:52:50.960Z,6.73
2023-04-20T09:55:21.189Z,7.90
2023-04-20T09:57:52.862Z,8.53
2023-04-20T10:00:22.504Z,8.30
2023-04-20T10:02:50.652Z,6.07
2023-04-20T10:05:19.141Z,7.40
2023-04-20T10:07:47.187Z,8.20
2023-04-20T10:10:17.051Z,7.60
2023-04-20T10:12:49.576Z,7.17
2023-04-20T10:15:21.818Z,6.40
2023-04-20T10:17:50.277Z,7.17
2023-04-20T10:20:23.150Z,8.00
2023-04-20T10:22:52.424Z,6.40
2023-04-20T10:25:22.239Z,8.67
2023-04-20T10:27:58.192Z,9.53
2023-04-20T10:30:28.923Z,8.70
2023-04-20T10:33:05.302Z,7.57
2023-04-20T10:35:45.785Z,6.03
2023-04-20T10:38:14.240Z,7.30
2023-04-20T10:40:42.530Z,7.03
2023-04-20T10:43:21.338Z,9.67
2023-04-20T10:45:51.202Z,8.10
2023-04-20T10:48:19.240Z,8.53
2023-04-20T10:50:47.405Z,9.03
2023-04-20T10:53:21.565Z,7.00
2023-04-20T10:55:59.895Z,7.43
2023-04-20T10:58:27.996Z,8.97
2023-04-20T11:01:01.850Z,8.33
2023-04-20T11:03:31.301Z,5.93
2023-04-20T11:06:01.553Z,6.57
2023-04-20T11:08:40.537Z,8.30
2023-04-20T11:11:19.753Z,5.30
2023-04-20T11:13:48.270Z,5.90
2023-04-20T11:16:19.864Z,5.70
2023-04-20T11:18:52.728Z,6.83
2023-04-20T11:21:21.311Z,6.63
2023-04-20T11:23:50.739Z,5.70
2023-04-20T11:26:19.096Z,7.00
2023-04-20T11:28:56.030Z,7.00
2023-04-20T11:31:27.993Z,7.00
2023-04-20T11:33:56.145Z,6.77
2023-04-20T11:36:26.627Z,7.80
2023-04-20T11:38:55.789Z,7.13
2023-04-20T11:41:23.815Z,7.00
2023-04-20T11:43:52.110Z,7.03
2023-04-20T11:46:22.727Z,7.77
2023-04-20T11:48:51.925Z,7.63
2023-04-20T11:51:19.872Z,6.90
2023-04-20T11:53:48.127Z,6.77
2023-04-20T11:56:16.547Z,6.80
2023-04-20T11:58:44.578Z,6.83
2023-04-20T12:01:13.258Z,7.90
2023-04-20T12:03:41.629Z,5.83
2023-04-20T12:06:11.296Z,6.67
2023-04-20T12:08:39.404Z,7.33
2023-04-20T12:11:07.641Z,7.27
2023-04-20T12:13:37.878Z,10.13
2023-04-20T12:16:06.639Z,9.37
2023-04-20T12:18:34.618Z,9.03
2023-04-20T12:21:02.711Z,7.30
2023-04-20T12:23:33.133Z,8.30
2023-04-20T12:26:01.405Z,7.83
2023-04-20T12:28:29.899Z,9.00
2023-04-20T12:30:58.281Z,9.20
2023-04-20T12:33:26.396Z,6.37
2023-04-20T12:35:54.748Z,9.67
2023-04-20T12:38:23.982Z,10.40
2023-04-20T12:40:55.711Z,7.20
2023-04-20T12:43:25.997Z,6.57
2023-04-20T12:46:03.650Z,7.73
2023-04-20T12:48:34.191Z,10.13
2023-04-20T12:51:03.802Z,6.40
2023-04-20T12:53:33.042Z,7.67
2023-04-20T12:56:03.579Z,9.00
2023-04-20T12:58:33.410Z,6.60
2023-04-20T13:01:02.832Z,8.57
2023-04-20T13:03:31.361Z,8.13
2023-04-20T13:06:00.599Z,6.77
2023-04-20T13:08:33.346Z,8.47
2023-04-20T13:11:29.729Z,7.03
2023-04-20T13:14:03.994Z,6.30
2023-04-20T13:16:35.393Z,5.77
2023-04-20T13:19:05.283Z,7.80
2023-04-20T13:21:34.956Z,6.47
2023-04-20T13:24:05.082Z,6.67
2023-04-20T13:26:35.203Z,6.20
2023-04-20T13:29:04.919Z,6.70
2023-04-20T13:31:35.838Z,5.50
2023-04-20T13:34:06.095Z,5.90
2023-04-20T13:36:36.174Z,5.30
2023-04-20T13:39:05.333Z,6.07
2023-04-20T13:41:37.315Z,7.10
2023-04-20T13:44:16.136Z,5.50
2023-04-20T13:46:45.000Z,6.53
2023-04-20T13:49:13.974Z,6.67
2023-04-20T13:51:43.500Z,8.20
2023-04-20T13:54:17.466Z,7.07
2023-04-20T13:57:10.911Z,7.17
2023-04-20T13:59:59.156Z,6.03
2023-04-20T14:02:29.318Z,6.50
2023-04-20T14:04:59.721Z,5.87
2023-04-20T14:07:29.435Z,7.33
2023-04-20T14:10:09.681Z,6.47
2023-04-20T14:12:42.584Z,5.43
2023-04-20T14:15:21.594Z,6.60
2023-04-20T14:18:00.722Z,8.10
2023-04-20T14:20:33.377Z,7.37
2023-04-20T14:23:07.396Z,7.33
2023-04-20T14:25:41.506Z,6.60
2023-04-20T14:28:33.453Z,6.17
2023-04-20T14:31:05.607Z,7.57
2023-04-20T14:33:34.723Z,6.23
2023-04-20T14:36:08.006Z,6.20
2023-04-20T14:38:38.303Z,6.27
2023-04-20T14:41:06.596Z,7.60
2023-04-20T14:43:36.085Z,5.43
2023-04-20T14:46:06.890Z,5.57
2023-04-20T14:48:35.666Z,5.60
2023-04-20T14:51:03.637Z,5.10
2023-04-20T14:53:32.677Z,5.00
2023-04-20T14:56:01.155Z,6.27
2023-04-20T14:58:29.200Z,4.70
2023-04-20T15:00:59.118Z,5.53
2023-04-20T15:03:28.040Z,5.00
2023-04-20T15:06:01.406Z,5.00
2023-04-20T15:08:30.687Z,4.93
2023-04-20T15:10:59.769Z,5.27
2023-04-20T15:13:28.629Z,6.07
2023-04-20T15:15:59.529Z,5.47
2023-04-20T15:18:28.548Z,5.40
2023-04-20T15:20:57.147Z,4.60
2023-04-20T15:23:25.204Z,6.43
2023-04-20T15:25:55.176Z,4.80
2023-04-20T15:28:28.090Z,6.63
2023-04-20T15:30:59.054Z,5.03
2023-04-20T15:33:28.697Z,5.67
2023-04-20T15:35:56.802Z,6.30
2023-04-20T15:38:25.094Z,6.77
2023-04-20T15:40:55.676Z,7.70
2023-04-20T15:43:23.612Z,6.67
2023-04-20T15:45:51.958Z,6.50
2023-04-20T15:48:21.477Z,5.90
2023-04-20T15:50:52.877Z,7.03
2023-04-20T15:53:22.194Z,7.17
2023-04-20T15:55:50.727Z,8.03
2023-04-20T15:58:19.007Z,7.33
2023-04-20T16:00:48.137Z,5.93
2023-04-20T16:03:16.550Z,7.97
2023-04-20T16:05:46.671Z,6.63
2023-04-20T16:08:15.445Z,8.07
2023-04-20T16:10:43.441Z,8.97
2023-04-20T16:13:11.887Z,8.80
2023-04-20T16:15:40.149Z,10.00
2023-04-20T16:18:17.996Z,9.63
2023-04-20T16:20:47.374Z,12.37
2023-04-20T16:23:15.997Z,9.50
2023-04-20T16:25:45.214Z,9.57
2023-04-20T16:28:15.681Z,7.20
2023-04-20T16:30:48.212Z,7.97
2023-04-20T16:33:20.749Z,9.07
2023-04-20T16:35:51.166Z,9.13
2023-04-20T16:38:22.109Z,8.23
2023-04-20T16:41:02.083Z,7.30
2023-04-20T16:43:30.133Z,7.23
2023-04-20T16:46:01.036Z,6.97
2023-04-20T16:48:29.021Z,7.03
2023-04-20T16:50:59.352Z,8.37
2023-04-20T16:53:28.525Z,7.57
2023-04-20T16:55:56.821Z,8.40
2023-04-20T16:58:25.054Z,7.47
2023-04-20T17:00:53.598Z,6.90
2023-04-20T17:03:23.544Z,7.37
2023-04-20T17:05:52.720Z,7.57
2023-04-20T17:08:23.286Z,7.87
2023-04-20T17:10:52.959Z,9.00
2023-04-20T17:13:22.201Z,6.37
2023-04-20T17:15:50.251Z,7.43
2023-04-20T17:18:20.062Z,9.53
2023-04-20T17:20:49.049Z,9.17
2023-04-20T17:23:18.465Z,9.57
2023-04-20T17:25:50.555Z,10.23
2023-04-20T17:28:20.258Z,10.87
2023-04-20T17:30:48.859Z,10.33
2023-04-20T17:33:17.721Z,10.80
2023-04-20T17:35:49.098Z,11.20
2023-04-20T17:38:17.305Z,11.20
2023-04-20T17:40:46.152Z,11.20
2023-04-20T17:43:16.689Z,11.33
2023-04-20T17:45:48.307Z,11.67
2023-04-20T17:48:17.413Z,10.60
2023-04-20T17:50:49.294Z,9.53
2023-04-20T17:53:18.409Z,10.70
2023-04-20T17:55:46.393Z,10.00
2023-04-20T17:58:14.462Z,10.10
2023-04-20T18:00:43.974Z,10.77
2023-04-20T18:03:14.850Z,11.10
2023-04-20T18:05:44.551Z,10.63
2023-04-20T18:08:13.365Z,9.37
2023-04-20T18:10:41.278Z,11.07
2023-04-20T18:13:10.420Z,12.17
2023-04-20T18:19:52.717Z,11.50
2023-04-20T18:22:20.961Z,11.33
2023-04-20T18:24:48.925Z,11.90
2023-04-20T18:27:17.158Z,11.77
2023-04-20T18:29:45.209Z,14.23
2023-04-20T18:32:16.311Z,14.93
2023-04-20T18:34:44.575Z,11.63
2023-04-20T18:37:14.418Z,12.27
2023-04-20T18:39:42.792Z,11.73
2023-04-20T18:42:11.095Z,11.90
2023-04-20T18:44:40.796Z,11.03
2023-04-20T18:47:09.293Z,11.13
2023-04-20T18:49:37.284Z,9.83
2023-04-20T18:52:05.820Z,9.10
2023-04-20T18:54:38.629Z,11.10
2023-04-20T18:57:07.986Z,8.70
2023-04-20T18:59:36.201Z,11.63
2023-04-20T19:02:04.299Z,10.03
2023-04-20T19:04:35.478Z,11.63
2023-04-20T19:07:03.508Z,10.90
2023-04-20T19:09:31.577Z,10.77
2023-04-20T19:12:01.453Z,10.77
2023-04-20T19:14:29.373Z,8.57
2023-04-20T19:16:57.728Z,10.57
2023-04-20T19:19:28.518Z,11.23
2023-04-20T19:21:57.799Z,11.77
2023-04-20T19:24:26.185Z,10.10
2023-04-20T19:26:54.251Z,9.23
2023-04-20T19:29:23.734Z,10.40
2023-04-20T19:32:03.396Z,9.57
2023-04-20T19:34:31.364Z,10.37
2023-04-20T19:36:59.810Z,12.03
2023-04-20T19:39:29.518Z,11.57
2023-04-20T19:41:57.796Z,11.50
2023-04-20T19:44:28.130Z,10.00
2023-04-20T19:46:56.205Z,12.33
2023-04-20T19:49:24.147Z,12.77
2023-04-20T19:51:52.171Z,13.17
2023-04-20T19:54:20.119Z,14.73
2023-04-20T19:56:48.214Z,16.80
2023-04-20T19:59:16.527Z,16.03
2023-04-20T20:01:47.145Z,17.00
2023-04-20T20:04:20.492Z,16.83
2023-04-20T20:06:50.660Z,21.20
2023-04-20T20:09:23.188Z,16.57
2023-04-20T20:11:54.885Z,15.97
2023-04-20T20:14:23.310Z,14.47
2023-04-20T20:16:53.147Z,15.20
2023-04-20T20:19:21.848Z,13.90
2023-04-20T20:21:50.722Z,11.70
2023-04-20T20:24:19.356Z,15.10
2023-04-20T20:26:48.112Z,11.47
2023-04-20T20:29:16.229Z,15.47
2023-04-20T20:31:44.817Z,15.73
2023-04-20T20:34:14.538Z,16.57
2023-04-20T20:36:44.719Z,15.87
2023-04-20T20:39:13.783Z,15.13
2023-04-20T20:41:42.853Z,15.67
2023-04-20T20:44:11.301Z,16.57
2023-04-20T20:46:40.549Z,16.90
2023-04-20T20:49:09.451Z,14.73
2023-04-20T20:51:39.013Z,15.67
2023-04-20T20:54:07.093Z,16.27
2023-04-20T20:56:35.567Z,15.80
2023-04-20T20:59:06.287Z,14.43
2023-04-20T21:01:34.336Z,14.33
2023-04-20T21:04:03.876Z,16.23
2023-04-20T21:06:33.236Z,17.67
2023-04-20T21:09:02.832Z,16.20
2023-04-20T21:11:30.905Z,15.93
2023-04-20T21:14:01.637Z,15.13
2023-04-20T21:16:30.192Z,16.27
2023-04-20T21:18:59.636Z,15.23
2023-04-20T21:21:27.705Z,14.80
2023-04-20T21:23:56.158Z,17.00
2023-04-20T21:26:25.486Z,17.50
2023-04-20T21:28:53.424Z,17.00
2023-04-20T21:31:21.326Z,17.00
2023-04-20T21:33:49.239Z,18.20
2023-04-20T21:36:17.231Z,19.40
2023-04-20T21:38:45.498Z,22.33
2023-04-20T21:41:13.436Z,20.63
2023-04-20T21:43:43.643Z,19.87
2023-04-20T21:46:15.298Z,17.03
2023-04-20T21:48:44.118Z,19.03
2023-04-20T21:51:19.386Z,20.67
2023-04-20T21:53:47.552Z,17.60
2023-04-20T21:56:16.286Z,20.80
2023-04-20T21:58:45.695Z,21.87
2023-04-20T22:01:13.597Z,21.97
2023-04-20T22:03:41.846Z,21.83
2023-04-20T22:06:12.777Z,22.07
2023-04-20T22:08:41.262Z,24.30
2023-04-20T22:11:09.219Z,21.63
2023-04-20T22:13:38.003Z,21.87
2023-04-20T22:16:08.229Z,24.20
2023-04-20T22:18:36.407Z,22.67
2023-04-20T22:21:04.699Z,21.10
2023-04-20T22:23:32.861Z,19.53
2023-04-20T22:26:01.057Z,20.87
2023-04-20T22:28:29.017Z,17.53
2023-04-20T22:30:57.269Z,15.47
2023-04-20T22:33:26.714Z,18.83
2023-04-20T22:35:54.969Z,19.43
2023-04-20T22:38:22.843Z,19.50
2023-04-20T22:40:51.324Z,18.20
2023-04-20T22:43:20.392Z,16.17
2023-04-20T22:45:48.914Z,19.73
2023-04-20T22:48:17.555Z,19.47
2023-04-20T22:50:47.113Z,16.87
2023-04-20T22:53:15.466Z,17.57
2023-04-20T22:55:43.578Z,16.37
2023-04-20T22:58:11.715Z,15.63
2023-04-20T23:00:39.717Z,12.83
2023-04-20T23:03:08.008Z,14.07
2023-04-20T23:05:36.882Z,15.73
2023-04-20T23:08:06.742Z,17.90
2023-04-20T23:10:34.881Z,18.53
2023-04-20T23:13:05.050Z,17.37
2023-04-20T23:15:33.075Z,19.13
2023-04-20T23:18:01.230Z,18.67
2023-04-20T23:20:31.515Z,21.43
2023-04-20T23:22:59.599Z,21.07
2023-04-20T23:25:29.083Z,22.30
2023-04-20T23:27:57.018Z,24.30
2023-04-20T23:30:25.028Z,19.33
2023-04-20T23:32:53.396Z,21.17
2023-04-20T23:35:21.438Z,16.03
2023-04-20T23:37:49.715Z,20.00
2023-04-20T23:40:18.125Z,16.77
2023-04-20T23:42:47.971Z,18.23
2023-04-20T23:45:16.177Z,21.63
2023-04-20T23:47:44.616Z,18.60
2023-04-20T23:50:12.858Z,18.93
2023-04-20T23:52:41.447Z,17.27
2023-04-20T23:55:10.815Z,15.13
2023-04-20T23:57:38.704Z,20.20
